createdAt,value
2019-01-17T00:01:06.863Z,4.30
2019-01-17T00:02:42.918Z,3.90
2019-01-17T00:04:18.945Z,4.40
2019-01-17T00:05:54.442Z,5.55
2019-01-17T00:07:30.724Z,5.83
2019-01-17T00:09:06.045Z,4.40
2019-01-17T00:10:41.396Z,6.25
2019-01-17T00:12:07.355Z,6.17
2019-01-17T00:13:43.153Z,7.45
2019-01-17T00:15:21.637Z,7.17
2019-01-17T00:16:57.021Z,6.30
2019-01-17T00:18:35.567Z,7.22
2019-01-17T00:20:11.109Z,6.75
2019-01-17T00:21:48.492Z,6.53
2019-01-17T00:23:23.870Z,7.47
2019-01-17T00:24:51.268Z,7.37
2019-01-17T00:26:33.801Z,6.58
2019-01-17T00:28:09.188Z,6.35
2019-01-17T00:29:57.469Z,5.58
2019-01-17T00:31:43.527Z,5.20
2019-01-17T00:33:19.338Z,5.40
2019-01-17T00:34:49.600Z,6.33
2019-01-17T00:36:25.097Z,5.67
2019-01-17T00:38:00.544Z,6.03
2019-01-17T00:39:36.032Z,5.75
2019-01-17T00:41:14.172Z,5.92
2019-01-17T00:42:38.581Z,5.30
2019-01-17T00:44:14.351Z,5.70
2019-01-17T00:45:49.816Z,5.60
2019-01-17T00:47:25.337Z,5.65
2019-01-17T00:48:57.784Z,4.92
2019-01-17T00:50:33.479Z,4.67
2019-01-17T00:52:15.706Z,4.87
2019-01-17T00:53:45.417Z,4.67
2019-01-17T00:55:28.536Z,5.28
2019-01-17T00:57:04.261Z,4.65
2019-01-17T00:58:40.411Z,5.45
2019-01-17T01:00:05.123Z,4.37
2019-01-17T01:01:42.335Z,5.40
2019-01-17T01:03:21.143Z,4.70
2019-01-17T01:04:59.128Z,5.20
2019-01-17T01:06:53.985Z,5.65
2019-01-17T01:08:29.480Z,4.60
2019-01-17T01:10:04.715Z,4.15
2019-01-17T01:11:40.139Z,4.95
2019-01-17T01:13:15.655Z,4.45
2019-01-17T01:14:51.161Z,5.50
2019-01-17T01:16:26.604Z,5.40
2019-01-17T01:18:02.027Z,5.17
2019-01-17T01:19:37.472Z,5.15
2019-01-17T01:21:12.893Z,4.90
2019-01-17T01:22:47.897Z,4.87
2019-01-17T01:24:19.504Z,4.70
2019-01-17T01:25:54.865Z,4.50
2019-01-17T01:27:36.153Z,5.30
2019-01-17T01:29:11.491Z,4.50
2019-01-17T01:30:46.795Z,4.60
2019-01-17T01:32:18.373Z,4.92
2019-01-17T01:34:10.977Z,4.60
2019-01-17T01:35:47.092Z,4.60
2019-01-17T01:37:28.483Z,5.20
2019-01-17T01:39:07.072Z,4.70
2019-01-17T01:40:36.213Z,4.55
2019-01-17T01:42:11.829Z,4.65
2019-01-17T01:43:50.164Z,5.25
2019-01-17T01:45:25.524Z,4.85
2019-01-17T01:46:50.922Z,4.85
2019-01-17T01:48:34.205Z,5.25
2019-01-17T01:50:09.728Z,4.60
2019-01-17T01:51:45.047Z,5.17
2019-01-17T01:53:09.116Z,5.10
2019-01-17T01:54:26.105Z,5.60
2019-01-17T01:55:43.056Z,4.55
2019-01-17T01:56:59.378Z,4.37
2019-01-17T01:58:15.892Z,5.15
2019-01-17T01:59:32.556Z,5.00
2019-01-17T02:00:49.288Z,5.53
2019-01-17T02:02:06.361Z,5.12
2019-01-17T02:03:22.724Z,5.47
2019-01-17T02:04:39.025Z,5.50
2019-01-17T02:05:56.186Z,5.90
2019-01-17T02:07:12.757Z,5.00
2019-01-17T02:08:29.079Z,5.20
2019-01-17T02:09:45.816Z,4.87
2019-01-17T02:11:02.942Z,5.65
2019-01-17T02:12:19.376Z,5.30
2019-01-17T02:13:35.801Z,4.78
2019-01-17T02:14:52.125Z,4.95
2019-01-17T02:16:10.393Z,5.55
2019-01-17T02:17:26.960Z,4.83
2019-01-17T02:18:43.386Z,4.78
2019-01-17T02:20:00.045Z,4.30
2019-01-17T02:21:16.704Z,4.83
2019-01-17T02:22:33.147Z,5.45
2019-01-17T02:23:49.805Z,5.42
2019-01-17T02:25:07.134Z,5.05
2019-01-17T02:26:23.421Z,5.50
2019-01-17T02:27:40.162Z,5.15
2019-01-17T02:28:57.911Z,5.22
2019-01-17T02:30:14.262Z,5.58
2019-01-17T02:31:30.561Z,5.15
2019-01-17T02:32:46.998Z,5.10
2019-01-17T02:34:03.349Z,6.28
2019-01-17T02:35:19.837Z,4.90
2019-01-17T02:36:36.022Z,5.20
2019-01-17T02:37:52.377Z,5.37
2019-01-17T02:39:08.682Z,5.20
2019-01-17T02:40:24.984Z,5.50
2019-01-17T02:41:41.611Z,4.90
2019-01-17T02:42:58.708Z,4.67
2019-01-17T02:44:15.205Z,5.47
2019-01-17T02:45:31.745Z,5.30
2019-01-17T02:46:48.019Z,4.60
2019-01-17T02:48:04.442Z,4.70
2019-01-17T02:49:20.974Z,4.72
2019-01-17T02:50:37.514Z,6.12
2019-01-17T02:51:54.126Z,5.45
2019-01-17T02:53:10.520Z,5.67
2019-01-17T02:54:27.141Z,5.37
2019-01-17T02:55:43.557Z,4.75
2019-01-17T02:57:00.366Z,6.47
2019-01-17T02:58:16.861Z,4.90
2019-01-17T02:59:34.122Z,5.35
2019-01-17T03:00:51.310Z,5.78
2019-01-17T03:02:07.644Z,5.40
2019-01-17T03:03:23.989Z,5.67
2019-01-17T03:04:41.085Z,6.25
2019-01-17T03:05:57.636Z,6.20
2019-01-17T03:07:13.981Z,6.33
2019-01-17T03:08:30.480Z,6.62
2019-01-17T03:09:45.797Z,5.95
2019-01-17T03:11:09.956Z,6.50
2019-01-17T03:12:27.128Z,5.80
2019-01-17T03:13:43.601Z,6.00
2019-01-17T03:14:59.965Z,6.10
2019-01-17T03:16:16.728Z,5.90
2019-01-17T03:17:33.616Z,6.10
2019-01-17T03:18:50.196Z,5.50
2019-01-17T03:20:07.341Z,5.67
2019-01-17T03:21:23.748Z,6.05
2019-01-17T03:22:40.826Z,5.97
2019-01-17T03:23:58.040Z,4.87
2019-01-17T03:25:15.538Z,5.58
2019-01-17T03:26:32.113Z,5.53
2019-01-17T03:27:48.865Z,6.00
2019-01-17T03:29:05.322Z,5.87
2019-01-17T03:30:21.865Z,5.90
2019-01-17T03:31:38.274Z,5.37
2019-01-17T03:32:54.667Z,6.40
2019-01-17T03:34:11.158Z,5.62
2019-01-17T03:35:27.849Z,5.22
2019-01-17T03:36:44.374Z,5.95
2019-01-17T03:38:01.322Z,4.90
2019-01-17T03:39:17.651Z,5.60
2019-01-17T03:40:34.156Z,4.72
2019-01-17T03:41:51.557Z,5.50
2019-01-17T03:43:08.865Z,5.05
2019-01-17T03:44:25.733Z,5.22
2019-01-17T03:45:42.988Z,4.97
2019-01-17T03:46:59.669Z,4.83
2019-01-17T03:48:16.080Z,4.97
2019-01-17T03:49:32.680Z,5.00
2019-01-17T03:50:49.798Z,4.35
2019-01-17T03:52:06.799Z,5.08
2019-01-17T03:53:23.345Z,4.33
2019-01-17T03:54:39.941Z,5.15
2019-01-17T03:55:56.736Z,4.85
2019-01-17T03:57:13.085Z,4.35
2019-01-17T03:58:30.326Z,4.40
2019-01-17T03:59:47.442Z,3.95
2019-01-17T04:01:04.988Z,4.20
2019-01-17T04:02:21.622Z,5.15
2019-01-17T04:03:38.743Z,4.05
2019-01-17T04:04:55.384Z,4.95
2019-01-17T04:06:11.966Z,4.40
2019-01-17T04:07:28.409Z,4.20
2019-01-17T04:08:44.809Z,4.05
2019-01-17T04:10:01.575Z,4.42
2019-01-17T04:11:18.641Z,4.10
2019-01-17T04:12:35.163Z,3.50
2019-01-17T04:13:52.011Z,3.55
2019-01-17T04:15:08.404Z,3.60
2019-01-17T04:16:23.600Z,4.28
2019-01-17T04:17:47.696Z,3.83
2019-01-17T04:19:03.975Z,3.90
2019-01-17T04:20:20.356Z,4.60
2019-01-17T04:21:36.926Z,4.12
2019-01-17T04:22:53.441Z,4.12
2019-01-17T04:24:09.682Z,4.15
2019-01-17T04:25:26.968Z,4.10
2019-01-17T04:26:44.101Z,3.10
2019-01-17T04:28:00.809Z,3.50
2019-01-17T04:29:17.880Z,4.47
2019-01-17T04:30:35.092Z,4.05
2019-01-17T04:31:52.557Z,3.37
2019-01-17T04:33:09.728Z,3.60
2019-01-17T04:34:26.295Z,4.12
2019-01-17T04:35:43.148Z,3.80
2019-01-17T04:36:59.677Z,4.10
2019-01-17T04:38:16.441Z,3.60
2019-01-17T04:39:33.717Z,3.95
2019-01-17T04:40:50.140Z,3.70
2019-01-17T04:42:07.304Z,3.55
2019-01-17T04:43:23.872Z,3.90
2019-01-17T04:44:40.193Z,3.77
2019-01-17T04:45:57.366Z,3.10
2019-01-17T04:47:14.046Z,3.30
2019-01-17T04:48:30.619Z,3.60
2019-01-17T04:49:45.877Z,3.60
2019-01-17T04:51:02.615Z,3.62
2019-01-17T04:52:18.969Z,3.72
2019-01-17T04:53:36.237Z,3.58
2019-01-17T04:54:52.689Z,3.10
2019-01-17T04:56:09.289Z,3.98
2019-01-17T04:57:25.814Z,3.70
2019-01-17T04:58:42.471Z,3.40
2019-01-17T04:59:58.923Z,4.03
2019-01-17T05:01:16.136Z,3.30
2019-01-17T05:02:32.669Z,3.95
2019-01-17T05:03:49.120Z,3.75
2019-01-17T05:05:05.603Z,3.95
2019-01-17T05:06:25.738Z,2.60
2019-01-17T05:07:42.402Z,3.47
2019-01-17T05:08:59.349Z,3.83
2019-01-17T05:10:16.703Z,3.27
2019-01-17T05:11:33.906Z,2.52
2019-01-17T05:12:50.927Z,2.92
2019-01-17T05:14:06.147Z,3.25
2019-01-17T05:15:30.519Z,3.30
2019-01-17T05:16:47.479Z,2.90
2019-01-17T05:18:04.106Z,3.05
2019-01-17T05:19:20.425Z,3.08
2019-01-17T05:20:37.005Z,3.52
2019-01-17T05:21:53.710Z,2.60
2019-01-17T05:23:10.895Z,3.12
2019-01-17T05:24:27.314Z,3.08
2019-01-17T05:25:44.473Z,2.85
2019-01-17T05:27:01.499Z,3.52
2019-01-17T05:28:18.001Z,3.30
2019-01-17T05:29:34.879Z,3.50
2019-01-17T05:30:50.094Z,3.10
2019-01-17T05:32:14.248Z,2.60
2019-01-17T05:33:30.677Z,3.67
2019-01-17T05:34:47.068Z,2.80
2019-01-17T05:36:04.002Z,2.85
2019-01-17T05:37:21.216Z,2.58
2019-01-17T05:38:37.958Z,3.05
2019-01-17T05:39:55.285Z,2.80
2019-01-17T05:41:11.841Z,3.30
2019-01-17T05:42:28.931Z,3.15
2019-01-17T05:43:46.121Z,3.08
2019-01-17T05:45:02.990Z,2.70
2019-01-17T05:46:20.185Z,2.95
2019-01-17T05:47:36.902Z,3.25
2019-01-17T05:48:53.647Z,3.05
2019-01-17T05:50:09.845Z,3.42
2019-01-17T05:51:26.714Z,3.02
2019-01-17T05:52:43.124Z,2.83
2019-01-17T05:53:59.618Z,3.12
2019-01-17T05:55:20.076Z,2.80
2019-01-17T05:56:34.172Z,3.40
2019-01-17T05:57:51.328Z,3.22
2019-01-17T05:59:07.608Z,3.42
2019-01-17T06:00:24.172Z,4.05
2019-01-17T06:01:40.570Z,3.37
2019-01-17T06:02:56.939Z,3.83
2019-01-17T06:04:14.204Z,3.95
2019-01-17T06:05:31.406Z,3.25
2019-01-17T06:06:48.009Z,3.77
2019-01-17T06:08:04.395Z,3.25
2019-01-17T06:09:20.853Z,4.37
2019-01-17T06:10:37.153Z,3.62
2019-01-17T06:11:53.440Z,3.60
2019-01-17T06:13:09.808Z,3.27
2019-01-17T06:14:26.756Z,3.50
2019-01-17T06:15:44.227Z,3.45
2019-01-17T06:17:00.461Z,3.72
2019-01-17T06:18:16.813Z,4.00
2019-01-17T06:19:33.633Z,3.60
2019-01-17T06:20:54.092Z,3.40
2019-01-17T06:21:59.288Z,3.30
2019-01-17T06:23:04.388Z,4.08
2019-01-17T06:24:09.515Z,3.05
2019-01-17T06:25:14.635Z,3.72
2019-01-17T06:26:19.845Z,3.70
2019-01-17T06:27:24.955Z,3.62
2019-01-17T06:28:30.087Z,3.60
2019-01-17T06:29:35.120Z,3.80
2019-01-17T06:30:40.228Z,3.67
2019-01-17T06:31:45.343Z,3.50
2019-01-17T06:32:50.405Z,3.80
2019-01-17T06:33:55.524Z,3.65
2019-01-17T06:35:00.653Z,3.35
2019-01-17T06:36:08.608Z,3.50
2019-01-17T06:37:13.785Z,3.87
2019-01-17T06:38:18.879Z,3.20
2019-01-17T06:39:24.139Z,3.52
2019-01-17T06:40:31.438Z,3.20
2019-01-17T06:41:36.541Z,3.10
2019-01-17T06:42:41.855Z,3.52
2019-01-17T06:43:46.914Z,3.37
2019-01-17T06:44:52.124Z,3.12
2019-01-17T06:45:57.233Z,3.67
2019-01-17T06:47:02.307Z,4.00
2019-01-17T06:48:07.361Z,3.55
2019-01-17T06:49:12.514Z,3.10
2019-01-17T06:50:17.677Z,3.22
2019-01-17T06:51:22.770Z,4.55
2019-01-17T06:52:27.808Z,3.62
2019-01-17T06:53:32.991Z,4.40
2019-01-17T06:54:38.085Z,4.00
2019-01-17T06:55:44.301Z,3.90
2019-01-17T06:56:49.475Z,4.35
2019-01-17T06:57:54.508Z,4.22
2019-01-17T06:58:59.698Z,3.95
2019-01-17T07:00:08.148Z,3.95
2019-01-17T07:01:13.268Z,4.22
2019-01-17T07:02:18.393Z,3.90
2019-01-17T07:03:23.521Z,4.92
2019-01-17T07:04:28.647Z,4.30
2019-01-17T07:05:33.757Z,4.80
2019-01-17T07:06:38.821Z,4.53
2019-01-17T07:07:43.965Z,3.70
2019-01-17T07:08:49.157Z,4.58
2019-01-17T07:09:54.306Z,5.00
2019-01-17T07:10:59.353Z,4.85
2019-01-17T07:12:04.466Z,4.05
2019-01-17T07:13:09.553Z,4.12
2019-01-17T07:14:14.688Z,4.50
2019-01-17T07:15:19.847Z,4.78
2019-01-17T07:16:24.960Z,4.97
2019-01-17T07:17:29.995Z,5.00
2019-01-17T07:18:35.106Z,4.40
2019-01-17T07:19:40.172Z,4.00
2019-01-17T07:20:45.202Z,4.00
2019-01-17T07:21:50.288Z,4.22
2019-01-17T07:22:55.309Z,4.92
2019-01-17T07:24:00.468Z,4.15
2019-01-17T07:25:06.508Z,4.72
2019-01-17T07:26:11.694Z,4.95
2019-01-17T07:27:16.721Z,4.45
2019-01-17T07:28:21.743Z,4.10
2019-01-17T07:29:26.920Z,4.70
2019-01-17T07:30:31.971Z,4.60
2019-01-17T07:31:37.107Z,4.03
2019-01-17T07:32:42.242Z,4.30
2019-01-17T07:33:47.369Z,3.92
2019-01-17T07:34:52.444Z,4.35
2019-01-17T07:35:57.592Z,3.80
2019-01-17T07:37:02.752Z,4.08
2019-01-17T07:38:07.886Z,4.17
2019-01-17T07:39:13.032Z,4.87
2019-01-17T07:40:18.167Z,4.10
2019-01-17T07:41:23.208Z,4.20
2019-01-17T07:42:28.240Z,4.20
2019-01-17T07:43:33.372Z,3.70
2019-01-17T07:44:38.396Z,4.05
2019-01-17T07:45:43.427Z,4.20
2019-01-17T07:46:48.592Z,3.92
2019-01-17T07:47:53.708Z,3.77
2019-01-17T07:48:58.760Z,4.33
2019-01-17T07:50:05.227Z,4.15
2019-01-17T07:51:10.402Z,3.98
2019-01-17T07:52:15.521Z,3.33
2019-01-17T07:53:20.700Z,3.80
2019-01-17T07:54:25.870Z,3.67
2019-01-17T07:55:31.054Z,4.10
2019-01-17T07:56:36.608Z,4.22
2019-01-17T07:57:41.706Z,4.10
2019-01-17T07:58:46.805Z,3.85
2019-01-17T07:59:51.812Z,4.47
2019-01-17T08:00:56.989Z,3.67
2019-01-17T08:02:02.062Z,3.95
2019-01-17T08:03:07.097Z,4.37
2019-01-17T08:04:12.570Z,3.45
2019-01-17T08:05:17.716Z,4.47
2019-01-17T08:06:22.897Z,3.30
2019-01-17T08:07:27.953Z,4.00
2019-01-17T08:08:33.079Z,4.00
2019-01-17T08:09:38.184Z,4.15
2019-01-17T08:10:43.277Z,4.15
2019-01-17T08:11:48.395Z,4.22
2019-01-17T08:12:53.603Z,4.40
2019-01-17T08:13:58.738Z,3.98
2019-01-17T08:15:04.274Z,3.77
2019-01-17T08:16:09.401Z,4.40
2019-01-17T08:17:14.478Z,4.28
2019-01-17T08:18:19.572Z,3.98
2019-01-17T08:19:24.686Z,3.90
2019-01-17T08:20:29.823Z,3.65
2019-01-17T08:21:34.936Z,4.55
2019-01-17T08:22:39.987Z,3.70
2019-01-17T08:23:45.028Z,3.62
2019-01-17T08:24:50.124Z,4.08
2019-01-17T08:25:55.185Z,3.12
2019-01-17T08:27:00.327Z,3.52
2019-01-17T08:28:05.348Z,4.20
2019-01-17T08:29:10.449Z,3.90
2019-01-17T08:30:17.843Z,3.85
2019-01-17T08:31:22.993Z,4.08
2019-01-17T08:32:28.057Z,4.12
2019-01-17T08:33:33.111Z,3.75
2019-01-17T08:34:38.229Z,3.42
2019-01-17T08:35:43.368Z,3.40
2019-01-17T08:36:48.475Z,3.60
2019-01-17T08:37:53.518Z,3.55
2019-01-17T08:38:58.607Z,3.72
2019-01-17T08:40:04.696Z,4.05
2019-01-17T08:41:09.796Z,3.60
2019-01-17T08:42:14.893Z,4.17
2019-01-17T08:43:20.034Z,3.50
2019-01-17T08:44:25.085Z,2.90
2019-01-17T08:45:30.207Z,3.40
2019-01-17T08:46:35.263Z,3.87
2019-01-17T08:47:40.257Z,3.85
2019-01-17T08:48:45.318Z,3.72
2019-01-17T08:49:50.349Z,3.17
2019-01-17T08:50:55.380Z,3.02
2019-01-17T08:52:00.495Z,2.70
2019-01-17T08:53:05.612Z,2.75
2019-01-17T08:54:10.712Z,3.05
2019-01-17T08:55:15.771Z,2.80
2019-01-17T08:56:20.900Z,2.60
2019-01-17T08:57:25.920Z,2.50
2019-01-17T08:58:31.061Z,2.50
2019-01-17T08:59:36.149Z,2.65
2019-01-17T09:00:41.265Z,2.55
2019-01-17T09:01:46.292Z,2.37
2019-01-17T09:02:51.449Z,2.45
2019-01-17T09:03:56.592Z,2.70
2019-01-17T09:05:01.686Z,2.70
2019-01-17T09:06:06.768Z,2.60
2019-01-17T09:07:11.772Z,2.87
2019-01-17T09:08:16.904Z,2.98
2019-01-17T09:09:22.015Z,2.70
2019-01-17T09:10:31.267Z,2.87
2019-01-17T09:11:36.316Z,2.60
2019-01-17T09:12:41.471Z,2.37
2019-01-17T09:13:46.547Z,2.60
2019-01-17T09:14:51.547Z,2.17
2019-01-17T09:15:56.601Z,2.65
2019-01-17T09:17:01.745Z,2.12
2019-01-17T09:18:06.880Z,2.58
2019-01-17T09:19:11.916Z,2.45
2019-01-17T09:20:17.021Z,2.70
2019-01-17T09:21:22.106Z,2.30
2019-01-17T09:22:28.273Z,2.50
2019-01-17T09:23:33.400Z,1.85
2019-01-17T09:24:38.545Z,2.42
2019-01-17T09:25:43.651Z,2.47
2019-01-17T09:26:48.773Z,2.47
2019-01-17T09:27:53.862Z,1.90
2019-01-17T09:28:59.976Z,1.90
2019-01-17T09:30:06.075Z,1.75
2019-01-17T09:31:11.065Z,1.90
2019-01-17T09:32:16.160Z,2.00
2019-01-17T09:33:21.253Z,2.00
2019-01-17T09:34:26.404Z,2.30
2019-01-17T09:35:31.501Z,1.87
2019-01-17T09:36:36.567Z,2.20
2019-01-17T09:37:41.641Z,2.35
2019-01-17T09:38:46.743Z,2.05
2019-01-17T09:39:51.864Z,1.92
2019-01-17T09:40:56.968Z,1.95
2019-01-17T09:42:02.065Z,1.90
2019-01-17T09:43:07.172Z,2.10
2019-01-17T09:44:12.256Z,1.67
2019-01-17T09:45:17.531Z,2.10
2019-01-17T09:46:22.612Z,2.10
2019-01-17T09:47:27.628Z,2.10
2019-01-17T09:48:32.735Z,1.92
2019-01-17T09:49:37.861Z,1.50
2019-01-17T09:50:42.986Z,1.80
2019-01-17T09:51:48.139Z,1.30
2019-01-17T09:52:53.338Z,1.40
2019-01-17T09:53:58.436Z,1.60
2019-01-17T09:55:03.533Z,1.42
2019-01-17T09:56:14.682Z,1.12
2019-01-17T09:57:15.278Z,1.10
2019-01-17T09:58:20.390Z,0.90
2019-01-17T09:59:25.476Z,1.15
2019-01-17T10:00:31.812Z,0.90
2019-01-17T10:01:36.818Z,0.90
2019-01-17T10:02:41.832Z,1.00
2019-01-17T10:03:46.845Z,1.12
2019-01-17T10:04:51.910Z,1.20
2019-01-17T10:05:57.032Z,1.00
2019-01-17T10:07:02.129Z,1.20
2019-01-17T10:08:07.113Z,1.10
2019-01-17T10:09:12.216Z,1.10
2019-01-17T10:10:18.324Z,1.10
2019-01-17T10:11:23.444Z,1.57
2019-01-17T10:12:28.545Z,1.30
2019-01-17T10:13:33.656Z,1.00
2019-01-17T10:14:38.780Z,0.80
2019-01-17T10:16:08.315Z,1.10
2019-01-17T10:18:00.621Z,1.05
2019-01-17T10:19:49.698Z,1.12
2019-01-17T10:21:08.816Z,1.10
2019-01-17T10:23:00.918Z,1.30
2019-01-17T10:25:04.868Z,1.20
2019-01-17T10:26:40.960Z,1.30
2019-01-17T10:28:18.401Z,1.47
2019-01-17T10:30:03.360Z,1.10
2019-01-17T10:31:39.215Z,1.00
2019-01-17T10:33:07.024Z,1.35
2019-01-17T10:34:23.334Z,1.10
2019-01-17T10:35:47.813Z,1.10
2019-01-17T10:37:34.800Z,1.45
2019-01-17T10:39:20.702Z,1.00
2019-01-17T10:41:03.576Z,1.37
2019-01-17T10:42:39.978Z,1.10
2019-01-17T10:44:28.238Z,1.15
2019-01-17T10:45:58.719Z,1.25
2019-01-17T10:47:47.596Z,1.37
2019-01-17T10:49:10.088Z,1.07
2019-01-17T10:50:32.929Z,1.15
2019-01-17T10:51:53.828Z,0.95
2019-01-17T10:53:24.133Z,1.00
2019-01-17T10:55:05.115Z,1.00
2019-01-17T10:56:50.416Z,1.40
2019-01-17T10:58:24.603Z,1.40
2019-01-17T10:59:37.837Z,1.52
2019-01-17T11:01:06.769Z,1.42
2019-01-17T11:02:34.368Z,1.05
2019-01-17T11:04:26.563Z,0.93
2019-01-17T11:05:49.823Z,0.95
2019-01-17T11:07:48.693Z,0.90
2019-01-17T11:09:28.258Z,0.98
2019-01-17T11:11:01.881Z,0.80
2019-01-17T11:12:44.243Z,1.17
2019-01-17T11:14:12.818Z,1.00
2019-01-17T11:16:01.843Z,0.95
2019-01-17T11:17:41.825Z,0.90
2019-01-17T11:18:55.881Z,0.70
2019-01-17T11:20:21.199Z,0.90
2019-01-17T11:21:56.385Z,0.93
2019-01-17T11:23:51.087Z,0.70
2019-01-17T11:25:31.785Z,0.70
2019-01-17T11:27:15.840Z,0.65
2019-01-17T11:28:44.665Z,0.90
2019-01-17T11:30:33.600Z,0.82
2019-01-17T11:32:09.721Z,0.80
2019-01-17T11:33:41.452Z,0.80
2019-01-17T11:35:33.425Z,0.82
2019-01-17T11:37:19.942Z,1.00
2019-01-17T11:39:33.361Z,1.05
2019-01-17T11:41:19.077Z,1.22
2019-01-17T11:42:50.211Z,0.95
2019-01-17T11:44:47.589Z,1.15
2019-01-17T11:46:28.339Z,0.90
2019-01-17T11:48:17.530Z,1.10
2019-01-17T11:50:09.792Z,0.90
2019-01-17T11:52:05.821Z,0.80
2019-01-17T11:53:37.759Z,1.00
2019-01-17T11:54:51.987Z,1.15
2019-01-17T11:56:26.325Z,1.00
2019-01-17T11:58:02.658Z,1.47
2019-01-17T11:59:50.764Z,0.90
2019-01-17T12:01:26.780Z,1.10
2019-01-17T12:03:13.145Z,1.10
2019-01-17T12:04:32.588Z,1.27
2019-01-17T12:05:38.781Z,1.10
2019-01-17T12:06:43.897Z,1.07
2019-01-17T12:07:49.016Z,1.00
2019-01-17T12:08:54.084Z,1.57
2019-01-17T12:09:59.194Z,1.10
2019-01-17T12:11:04.325Z,1.10
2019-01-17T12:12:10.809Z,1.60
2019-01-17T12:13:17.482Z,1.40
2019-01-17T12:14:24.127Z,1.30
2019-01-17T12:15:29.337Z,1.05
2019-01-17T12:16:34.465Z,1.10
2019-01-17T12:17:39.581Z,1.37
2019-01-17T12:18:44.724Z,1.35
2019-01-17T12:19:49.773Z,1.20
2019-01-17T12:20:54.889Z,1.30
2019-01-17T12:22:00.022Z,1.85
2019-01-17T12:23:05.137Z,1.80
2019-01-17T12:24:10.551Z,1.50
2019-01-17T12:25:15.656Z,1.60
2019-01-17T12:26:21.702Z,1.62
2019-01-17T12:27:26.733Z,1.25
2019-01-17T12:28:31.853Z,1.35
2019-01-17T12:29:36.977Z,1.15
2019-01-17T12:30:42.092Z,1.02
2019-01-17T12:31:47.244Z,1.05
2019-01-17T12:32:52.309Z,1.20
2019-01-17T12:33:57.425Z,1.40
2019-01-17T12:35:02.472Z,1.10
2019-01-17T12:36:07.663Z,1.15
2019-01-17T12:37:12.848Z,1.10
2019-01-17T12:38:17.965Z,1.40
2019-01-17T12:39:23.064Z,1.10
2019-01-17T12:40:28.190Z,1.27
2019-01-17T12:41:33.412Z,0.90
2019-01-17T12:42:38.596Z,1.00
2019-01-17T12:43:43.713Z,0.80
2019-01-17T12:44:48.760Z,0.85
2019-01-17T12:45:53.804Z,0.80
2019-01-17T12:46:58.946Z,0.95
2019-01-17T12:48:04.327Z,0.95
2019-01-17T12:49:09.484Z,0.95
2019-01-17T12:50:17.265Z,0.85
2019-01-17T12:51:22.457Z,0.88
2019-01-17T12:52:27.607Z,1.17
2019-01-17T12:53:32.730Z,1.20
2019-01-17T12:54:37.856Z,0.70
2019-01-17T12:55:43.001Z,1.02
2019-01-17T12:56:53.873Z,0.93
2019-01-17T12:57:54.872Z,1.20
2019-01-17T12:58:59.988Z,0.85
2019-01-17T13:00:08.515Z,1.00
2019-01-17T13:01:13.624Z,0.95
2019-01-17T13:02:18.662Z,1.30
2019-01-17T13:03:23.777Z,0.88
2019-01-17T13:04:28.893Z,1.00
2019-01-17T13:05:34.056Z,1.00
2019-01-17T13:06:39.247Z,1.20
2019-01-17T13:07:44.369Z,1.00
2019-01-17T13:08:49.482Z,0.88
2019-01-17T13:09:54.617Z,0.70
2019-01-17T13:10:59.664Z,1.00
2019-01-17T13:12:04.896Z,0.90
2019-01-17T13:13:10.016Z,0.90
2019-01-17T13:14:15.169Z,1.12
2019-01-17T13:15:20.282Z,1.10
2019-01-17T13:16:25.370Z,0.90
2019-01-17T13:17:30.483Z,1.10
2019-01-17T13:18:35.628Z,1.30
2019-01-17T13:19:40.974Z,1.20
2019-01-17T13:20:46.167Z,0.90
2019-01-17T13:21:51.251Z,0.80
2019-01-17T13:22:56.357Z,0.95
2019-01-17T13:24:01.456Z,0.80
2019-01-17T13:25:08.167Z,0.70
2019-01-17T13:26:13.268Z,0.72
2019-01-17T13:27:18.378Z,0.70
2019-01-17T13:28:23.467Z,1.05
2019-01-17T13:29:28.622Z,1.22
2019-01-17T13:30:33.665Z,0.90
2019-01-17T13:31:38.756Z,1.50
2019-01-17T13:32:43.844Z,1.05
2019-01-17T13:33:48.943Z,0.70
2019-01-17T13:34:54.090Z,0.98
2019-01-17T13:35:59.162Z,1.12
2019-01-17T13:37:04.367Z,0.90
2019-01-17T13:38:09.458Z,0.88
2019-01-17T13:39:14.577Z,0.80
2019-01-17T13:40:21.579Z,0.78
2019-01-17T13:41:26.714Z,1.02
2019-01-17T13:42:31.905Z,0.90
2019-01-17T13:43:37.016Z,0.75
2019-01-17T13:44:42.117Z,0.62
2019-01-17T13:45:47.213Z,0.90
2019-01-17T13:46:52.327Z,1.40
2019-01-17T13:47:57.463Z,1.15
2019-01-17T13:49:02.563Z,0.80
2019-01-17T13:50:09.478Z,0.90
2019-01-17T13:51:14.595Z,0.80
2019-01-17T13:52:19.719Z,0.70
2019-01-17T13:53:24.732Z,0.85
2019-01-17T13:54:29.851Z,1.05
2019-01-17T13:55:34.988Z,0.95
2019-01-17T13:56:40.116Z,1.05
2019-01-17T13:57:45.302Z,0.80
2019-01-17T13:58:50.392Z,1.00
2019-01-17T13:59:55.504Z,1.00
2019-01-17T14:01:00.583Z,1.10
2019-01-17T14:02:05.721Z,0.70
2019-01-17T14:03:10.836Z,0.85
2019-01-17T14:04:16.922Z,0.85
2019-01-17T14:05:22.158Z,0.82
2019-01-17T14:06:27.284Z,0.88
2019-01-17T14:07:32.393Z,1.10
2019-01-17T14:08:37.504Z,0.80
2019-01-17T14:09:42.615Z,0.90
2019-01-17T14:10:47.764Z,0.60
2019-01-17T14:11:52.863Z,0.88
2019-01-17T14:12:57.977Z,1.10
2019-01-17T14:14:03.080Z,1.00
2019-01-17T14:15:15.446Z,1.00
2019-01-17T14:16:20.557Z,0.98
2019-01-17T14:17:25.672Z,0.90
2019-01-17T14:18:30.772Z,1.37
2019-01-17T14:19:35.932Z,0.90
2019-01-17T14:20:41.048Z,0.93
2019-01-17T14:21:46.197Z,0.90
2019-01-17T14:22:51.296Z,1.00
2019-01-17T14:23:56.384Z,1.75
2019-01-17T14:25:01.512Z,1.72
2019-01-17T14:26:06.678Z,1.65
2019-01-17T14:27:14.084Z,1.30
2019-01-17T14:28:18.573Z,1.20
2019-01-17T14:29:23.667Z,0.85
2019-01-17T14:30:30.711Z,1.32
2019-01-17T14:31:35.739Z,1.40
2019-01-17T14:32:40.961Z,1.20
2019-01-17T14:33:46.065Z,1.22
2019-01-17T14:34:51.152Z,1.40
2019-01-17T14:35:56.271Z,1.00
2019-01-17T14:37:01.396Z,1.15
2019-01-17T14:38:06.528Z,0.88
2019-01-17T14:39:11.601Z,0.95
2019-01-17T14:40:16.716Z,0.72
2019-01-17T14:41:21.877Z,0.65
2019-01-17T14:42:27.020Z,0.93
2019-01-17T14:43:32.068Z,0.98
2019-01-17T14:44:37.209Z,1.00
2019-01-17T14:45:42.360Z,0.88
2019-01-17T14:46:47.532Z,1.25
2019-01-17T14:47:52.577Z,1.22
2019-01-17T14:48:57.611Z,1.45
2019-01-17T14:50:02.752Z,1.10
2019-01-17T14:51:07.929Z,1.60
2019-01-17T14:52:13.075Z,1.00
2019-01-17T14:53:18.178Z,0.90
2019-01-17T14:54:23.288Z,0.93
2019-01-17T14:55:28.376Z,0.90
2019-01-17T14:56:33.503Z,0.80
2019-01-17T14:57:38.585Z,0.70
2019-01-17T14:58:43.729Z,0.80
2019-01-17T14:59:48.836Z,0.80
2019-01-17T15:00:53.944Z,0.85
2019-01-17T15:01:59.099Z,0.93
2019-01-17T15:03:04.385Z,1.30
2019-01-17T15:04:09.544Z,1.55
2019-01-17T15:05:15.086Z,0.98
2019-01-17T15:06:20.232Z,1.32
2019-01-17T15:07:26.419Z,0.90
2019-01-17T15:08:31.584Z,0.98
2019-01-17T15:09:36.734Z,1.00
2019-01-17T15:10:42.415Z,1.00
2019-01-17T15:11:47.528Z,1.00
2019-01-17T15:12:52.669Z,1.05
2019-01-17T15:13:57.708Z,0.80
2019-01-17T15:15:02.815Z,1.00
2019-01-17T15:16:08.008Z,0.80
2019-01-17T15:17:13.133Z,0.78
2019-01-17T15:18:18.261Z,1.05
2019-01-17T15:19:23.417Z,0.80
2019-01-17T15:20:28.601Z,0.90
2019-01-17T15:21:33.767Z,0.80
2019-01-17T15:22:38.916Z,0.70
2019-01-17T15:23:44.025Z,0.93
2019-01-17T15:24:49.054Z,0.90
2019-01-17T15:25:54.113Z,0.80
2019-01-17T15:26:59.188Z,0.95
2019-01-17T15:28:04.265Z,0.90
2019-01-17T15:29:09.379Z,0.70
2019-01-17T15:30:17.465Z,0.98
2019-01-17T15:31:22.617Z,1.10
2019-01-17T15:32:27.759Z,1.25
2019-01-17T15:33:32.894Z,0.80
2019-01-17T15:34:38.044Z,0.80
2019-01-17T15:35:43.136Z,0.90
2019-01-17T15:36:48.247Z,0.95
2019-01-17T15:37:53.410Z,1.02
2019-01-17T15:38:58.457Z,0.90
2019-01-17T15:40:03.893Z,0.88
2019-01-17T15:41:09.016Z,0.90
2019-01-17T15:42:14.135Z,0.90
2019-01-17T15:43:19.222Z,0.82
2019-01-17T15:44:24.377Z,0.98
2019-01-17T15:45:29.496Z,0.90
2019-01-17T15:46:34.627Z,1.00
2019-01-17T15:47:39.729Z,0.98
2019-01-17T15:48:44.853Z,0.88
2019-01-17T15:49:49.995Z,0.80
2019-01-17T15:50:55.103Z,0.60
2019-01-17T15:52:00.195Z,0.90
2019-01-17T15:53:05.385Z,0.62
2019-01-17T15:54:11.565Z,0.90
2019-01-17T15:55:16.907Z,0.80
2019-01-17T15:56:22.010Z,0.60
2019-01-17T15:57:27.127Z,0.90
2019-01-17T15:58:32.943Z,0.80
2019-01-17T15:59:38.186Z,0.70
2019-01-17T16:00:43.297Z,1.02
2019-01-17T16:01:48.397Z,0.70
2019-01-17T16:02:53.485Z,0.80
2019-01-17T16:03:58.581Z,0.80
2019-01-17T16:05:04.144Z,0.80
2019-01-17T16:06:09.313Z,0.70
2019-01-17T16:07:14.358Z,1.30
2019-01-17T16:08:19.447Z,1.15
2019-01-17T16:09:25.701Z,1.10
2019-01-17T16:10:30.849Z,0.88
2019-01-17T16:11:35.924Z,1.20
2019-01-17T16:12:41.046Z,0.82
2019-01-17T16:13:46.185Z,0.80
2019-01-17T16:14:51.224Z,0.70
2019-01-17T16:15:56.331Z,0.85
2019-01-17T16:17:01.711Z,0.70
2019-01-17T16:18:06.869Z,0.80
2019-01-17T16:19:11.999Z,0.75
2019-01-17T16:20:17.282Z,1.15
2019-01-17T16:21:22.368Z,0.70
2019-01-17T16:22:27.431Z,0.80